Time;durP1;ratioP1;P1;durP2;ratioP2;P2;SDS_P1;SDS_P2;PMS_P1;PMS_P2;Temp;Humidity;BMP_temperature;BMP_pressure;BME280_temperature;BME280_humidity;BME280_pressure;Samples;Min_cycle;Max_cycle;Signal;HPM_P1;HPM_P2
2021/05/29 00:02:03;;;;;;;5.50;4.13;;;;;;;;;;5069209;28;20200;-70
2021/05/29 00:04:28;;;;;;;5.77;4.30;;;;;;;;;;5059501;28;20258;-70
2021/05/29 00:06:54;;;;;;;5.13;4.70;;;;;;;;;;5063188;28;20178;-70
2021/05/29 00:09:19;;;;;;;8.00;4.70;;;;;;;;;;5066442;28;20177;-70
2021/05/29 00:11:44;;;;;;;6.27;4.60;;;;;;;;;;5070335;28;20664;-70
2021/05/29 00:14:09;;;;;;;9.53;4.77;;;;;;;;;;5066373;28;20196;-70
2021/05/29 00:16:34;;;;;;;5.53;4.60;;;;;;;;;;5060902;28;20178;-70
2021/05/29 00:19:00;;;;;;;7.40;4.90;;;;;;;;;;5070915;28;20650;-70
2021/05/29 00:21:25;;;;;;;6.13;5.03;;;;;;;;;;5060071;28;20201;-70
2021/05/29 00:23:50;;;;;;;5.90;4.40;;;;;;;;;;5063565;28;20664;-70
2021/05/29 00:26:15;;;;;;;5.17;4.40;;;;;;;;;;5069635;28;20224;-70
2021/05/29 00:28:41;;;;;;;8.07;5.40;;;;;;;;;;5067957;28;20225;-70
2021/05/29 00:31:06;;;;;;;8.87;5.13;;;;;;;;;;5067808;28;20677;-71
2021/05/29 00:33:32;;;;;;;7.20;5.03;;;;;;;;;;5070883;28;20201;-70
2021/05/29 00:35:57;;;;;;;7.10;5.33;;;;;;;;;;5066474;28;20594;-70
2021/05/29 00:38:22;;;;;;;9.57;5.23;;;;;;;;;;5063862;28;20189;-70
2021/05/29 00:40:47;;;;;;;6.80;4.97;;;;;;;;;;5065846;28;20213;-71
2021/05/29 00:43:13;;;;;;;7.03;5.37;;;;;;;;;;5059484;28;20209;-71
2021/05/29 00:45:38;;;;;;;6.63;5.00;;;;;;;;;;5062705;28;20284;-70
2021/05/29 00:48:04;;;;;;;7.07;5.37;;;;;;;;;;5068549;28;20173;-71
2021/05/29 00:50:31;;;;;;;7.27;5.70;;;;;;;;;;5057700;28;20281;-70
2021/05/29 00:52:56;;;;;;;7.63;5.67;;;;;;;;;;5062022;28;22088;-71
2021/05/29 00:55:22;;;;;;;7.90;6.00;;;;;;;;;;5068938;28;20185;-70
2021/05/29 00:57:48;;;;;;;6.43;4.93;;;;;;;;;;5066546;28;20173;-70
2021/05/29 01:00:16;;;;;;;7.27;5.03;;;;;;;;;;5069069;28;20197;-71
2021/05/29 01:02:41;;;;;;;7.63;5.33;;;;;;;;;;5067776;28;20685;-69
2021/05/29 01:05:07;;;;;;;6.37;5.47;;;;;;;;;;5058798;28;20188;-71
2021/05/29 01:07:33;;;;;;;7.10;5.20;;;;;;;;;;5065591;28;20787;-70
2021/05/29 01:09:58;;;;;;;7.43;5.50;;;;;;;;;;5061273;28;20180;-70
2021/05/29 01:12:23;;;;;;;9.23;5.50;;;;;;;;;;5065676;28;20678;-70
2021/05/29 01:17:13;;;;;;;7.47;5.87;;;;;;;;;;5064497;28;20200;-70
2021/05/29 01:19:39;;;;;;;8.67;5.87;;;;;;;;;;5065012;28;20178;-70
2021/05/29 01:22:05;;;;;;;8.00;5.67;;;;;;;;;;5064765;28;20219;-70
2021/05/29 01:24:30;;;;;;;6.40;5.80;;;;;;;;;;5066984;28;20173;-70
2021/05/29 01:26:55;;;;;;;7.13;6.17;;;;;;;;;;5059670;28;20172;-71
2021/05/29 01:29:21;;;;;;;8.53;6.30;;;;;;;;;;5063860;28;20165;-70
2021/05/29 01:31:48;;;;;;;7.13;6.10;;;;;;;;;;5063184;28;20173;-70
2021/05/29 01:34:14;;;;;;;8.53;6.57;;;;;;;;;;5061955;28;20202;-70
2021/05/29 01:36:39;;;;;;;8.07;5.73;;;;;;;;;;5063106;28;20244;-71
2021/05/29 01:39:06;;;;;;;9.33;6.00;;;;;;;;;;5062488;28;20201;-71
2021/05/29 01:41:32;;;;;;;9.33;6.33;;;;;;;;;;5069615;28;20222;-71
2021/05/29 01:43:57;;;;;;;9.00;6.10;;;;;;;;;;5063062;28;20197;-71
2021/05/29 01:46:22;;;;;;;8.77;6.63;;;;;;;;;;5064431;28;20596;-71
2021/05/29 01:48:49;;;;;;;8.43;6.30;;;;;;;;;;5068010;28;20176;-71
2021/05/29 01:51:15;;;;;;;8.10;6.00;;;;;;;;;;5068874;28;20565;-72
2021/05/29 01:53:40;;;;;;;10.80;6.67;;;;;;;;;;5060966;28;20241;-71
2021/05/29 01:56:06;;;;;;;7.70;6.20;;;;;;;;;;5067095;28;20184;-71
2021/05/29 01:58:31;;;;;;;6.80;6.10;;;;;;;;;;5067197;28;20175;-71
2021/05/29 02:00:56;;;;;;;8.43;6.43;;;;;;;;;;5065141;28;20666;-71
2021/05/29 02:03:21;;;;;;;8.53;5.70;;;;;;;;;;5059015;28;20968;-72
2021/05/29 02:05:47;;;;;;;7.37;5.60;;;;;;;;;;5060468;28;20635;-71
2021/05/29 02:08:12;;;;;;;7.87;6.10;;;;;;;;;;5060694;28;20177;-71
2021/05/29 02:10:39;;;;;;;9.10;6.00;;;;;;;;;;5061330;28;20184;-71
2021/05/29 02:13:06;;;;;;;9.90;6.40;;;;;;;;;;5066606;28;20204;-71
2021/05/29 02:15:33;;;;;;;6.60;5.93;;;;;;;;;;5064630;28;20197;-71
2021/05/29 02:17:59;;;;;;;8.30;6.17;;;;;;;;;;5065602;28;20673;-71
2021/05/29 02:20:39;;;;;;;8.93;6.47;;;;;;;;;;5059277;28;20196;-70
2021/05/29 02:23:05;;;;;;;8.67;6.13;;;;;;;;;;5064372;28;20691;-72
2021/05/29 02:25:30;;;;;;;8.90;6.27;;;;;;;;;;5061452;28;20286;-71
2021/05/29 02:27:55;;;;;;;7.33;6.23;;;;;;;;;;5074976;28;20169;-72
2021/05/29 02:30:21;;;;;;;7.53;5.90;;;;;;;;;;5069879;28;20329;-70
2021/05/29 02:32:46;;;;;;;11.40;6.33;;;;;;;;;;5062968;28;20705;-70
2021/05/29 02:35:11;;;;;;;9.93;6.40;;;;;;;;;;5067451;28;20550;-70
2021/05/29 02:37:36;;;;;;;8.90;7.20;;;;;;;;;;5066959;28;20177;-71
2021/05/29 02:40:02;;;;;;;8.53;6.17;;;;;;;;;;5069629;28;20228;-70
2021/05/29 02:42:27;;;;;;;8.13;6.67;;;;;;;;;;5062724;28;20681;-71
2021/05/29 02:44:52;;;;;;;11.93;5.83;;;;;;;;;;5066694;28;20231;-70
2021/05/29 02:47:18;;;;;;;8.60;6.43;;;;;;;;;;5068325;28;20181;-70
2021/05/29 02:49:43;;;;;;;7.37;6.60;;;;;;;;;;5065104;28;20577;-71
2021/05/29 02:52:08;;;;;;;6.77;6.10;;;;;;;;;;5069183;28;20176;-71
2021/05/29 02:54:40;;;;;;;6.73;5.57;;;;;;;;;;5071658;28;20223;-71
2021/05/29 02:57:06;;;;;;;7.37;6.07;;;;;;;;;;5065673;28;20209;-72
2021/05/29 02:59:31;;;;;;;8.23;6.43;;;;;;;;;;5069798;28;20697;-71
2021/05/29 03:01:56;;;;;;;10.53;6.50;;;;;;;;;;5063256;28;20183;-71
2021/05/29 03:04:21;;;;;;;8.20;6.10;;;;;;;;;;5068029;28;20251;-71
2021/05/29 03:06:46;;;;;;;7.83;6.23;;;;;;;;;;5066914;28;20655;-70
2021/05/29 03:09:11;;;;;;;10.03;6.47;;;;;;;;;;5070505;28;20263;-72
2021/05/29 03:11:40;;;;;;;8.37;6.13;;;;;;;;;;5068316;28;20233;-71
2021/05/29 03:14:06;;;;;;;8.87;7.50;;;;;;;;;;5065450;28;20212;-71
2021/05/29 03:16:31;;;;;;;9.63;7.37;;;;;;;;;;5063379;28;20205;-72
2021/05/29 03:18:56;;;;;;;11.20;7.00;;;;;;;;;;5063758;28;20655;-71
2021/05/29 03:21:22;;;;;;;9.83;6.70;;;;;;;;;;5069357;28;20262;-72
2021/05/29 03:23:47;;;;;;;7.70;5.63;;;;;;;;;;5065439;28;20669;-71
2021/05/29 03:26:12;;;;;;;9.10;5.67;;;;;;;;;;5068236;28;20185;-72
2021/05/29 03:28:38;;;;;;;7.57;5.63;;;;;;;;;;5069812;28;20216;-72
2021/05/29 03:31:03;;;;;;;15.83;6.97;;;;;;;;;;5070434;28;20191;-71
2021/05/29 03:33:28;;;;;;;6.00;5.30;;;;;;;;;;5068674;28;20197;-71
2021/05/29 03:35:53;;;;;;;6.57;5.50;;;;;;;;;;5065820;28;20388;-72
2021/05/29 03:38:19;;;;;;;7.10;5.53;;;;;;;;;;5066480;28;20193;-71
2021/05/29 03:40:44;;;;;;;5.97;5.30;;;;;;;;;;5070163;28;20658;-72
2021/05/29 03:43:09;;;;;;;8.53;5.37;;;;;;;;;;5069978;28;20205;-71
2021/05/29 03:45:35;;;;;;;7.50;5.00;;;;;;;;;;5066215;28;20189;-71
2021/05/29 03:48:00;;;;;;;6.40;4.97;;;;;;;;;;5071310;28;20188;-71
2021/05/29 03:50:25;;;;;;;8.37;5.67;;;;;;;;;;5060901;28;20193;-71
2021/05/29 03:52:51;;;;;;;6.63;4.97;;;;;;;;;;5067441;28;20283;-71
2021/05/29 03:55:18;;;;;;;8.20;5.63;;;;;;;;;;5063955;28;20165;-71
2021/05/29 03:57:44;;;;;;;6.87;5.33;;;;;;;;;;5064217;28;20287;-71
2021/05/29 04:00:11;;;;;;;6.20;5.10;;;;;;;;;;5063612;28;20610;-72
2021/05/29 04:02:36;;;;;;;7.60;5.50;;;;;;;;;;5070117;28;20189;-71
2021/05/29 04:05:02;;;;;;;6.23;4.90;;;;;;;;;;5062126;28;20675;-71
2021/05/29 04:07:27;;;;;;;8.33;5.63;;;;;;;;;;5070502;28;20557;-71
2021/05/29 04:09:53;;;;;;;6.87;5.20;;;;;;;;;;5064490;28;20207;-71
2021/05/29 04:12:18;;;;;;;6.50;5.13;;;;;;;;;;5070636;28;20279;-71
2021/05/29 04:14:43;;;;;;;6.93;4.93;;;;;;;;;;5073113;28;20208;-71
2021/05/29 04:17:10;;;;;;;8.83;5.87;;;;;;;;;;5068570;28;20188;-71
2021/05/29 04:19:36;;;;;;;8.30;5.87;;;;;;;;;;5064282;28;20693;-71
2021/05/29 04:22:01;;;;;;;6.23;5.07;;;;;;;;;;5063104;28;20256;-71
2021/05/29 04:24:26;;;;;;;7.53;5.43;;;;;;;;;;5061442;28;20173;-71
2021/05/29 04:26:52;;;;;;;5.73;4.97;;;;;;;;;;5066417;28;20239;-71
2021/05/29 04:29:17;;;;;;;7.33;5.47;;;;;;;;;;5061315;28;20182;-72
2021/05/29 04:31:42;;;;;;;7.07;4.80;;;;;;;;;;5067417;28;20181;-71
2021/05/29 04:34:07;;;;;;;6.40;5.10;;;;;;;;;;5060341;28;20964;-72
2021/05/29 04:36:32;;;;;;;5.90;5.30;;;;;;;;;;5066429;28;20181;-72
2021/05/29 04:38:58;;;;;;;6.40;4.47;;;;;;;;;;5063563;28;20646;-72
2021/05/29 04:41:23;;;;;;;6.10;4.73;;;;;;;;;;5064321;28;20204;-72
2021/05/29 04:43:48;;;;;;;6.67;4.23;;;;;;;;;;5069992;28;20184;-72
2021/05/29 04:46:13;;;;;;;6.53;5.17;;;;;;;;;;5062438;28;20181;-71
2021/05/29 04:48:39;;;;;;;6.68;4.60;;;;;;;;;;5061329;28;20177;-72
2021/05/29 04:51:14;;;;;;;5.18;4.35;;;;;;;;;;5069870;28;20176;-71
2021/05/29 04:53:40;;;;;;;5.53;4.63;;;;;;;;;;5069216;28;20197;-72
2021/05/29 04:56:06;;;;;;;8.25;5.57;;;;;;;;;;5068378;28;20556;-72
2021/05/29 04:58:32;;;;;;;7.53;4.63;;;;;;;;;;5062896;28;20264;-71
2021/05/29 05:00:57;;;;;;;6.57;5.10;;;;;;;;;;5066341;28;20196;-71
2021/05/29 05:03:22;;;;;;;6.25;5.03;;;;;;;;;;5063501;28;20192;-71
2021/05/29 05:05:48;;;;;;;6.40;5.28;;;;;;;;;;5058063;28;20166;-71
2021/05/29 05:08:13;;;;;;;8.73;5.57;;;;;;;;;;5059107;28;20173;-71
2021/05/29 05:10:38;;;;;;;5.95;5.35;;;;;;;;;;5062552;28;20185;-71
2021/05/29 05:13:03;;;;;;;7.30;5.10;;;;;;;;;;5065062;28;21694;-71
2021/05/29 05:15:29;;;;;;;5.87;5.10;;;;;;;;;;5065658;28;20173;-71
2021/05/29 05:17:54;;;;;;;6.73;5.53;;;;;;;;;;5063503;28;20730;-71
2021/05/29 05:20:19;;;;;;;10.10;5.70;;;;;;;;;;5071754;28;20682;-72
2021/05/29 05:22:45;;;;;;;6.37;5.07;;;;;;;;;;5064395;28;20243;-71
2021/05/29 05:25:11;;;;;;;6.87;5.40;;;;;;;;;;5062421;28;20170;-71
2021/05/29 05:27:36;;;;;;;5.80;5.10;;;;;;;;;;5066422;28;20176;-71
2021/05/29 05:30:03;;;;;;;6.87;5.20;;;;;;;;;;5061996;28;20243;-71
2021/05/29 05:32:29;;;;;;;6.33;5.10;;;;;;;;;;5066097;28;20198;-71
2021/05/29 05:34:54;;;;;;;5.97;4.60;;;;;;;;;;5064213;28;20181;-71
2021/05/29 05:37:19;;;;;;;8.47;5.70;;;;;;;;;;5066657;28;20177;-71
2021/05/29 05:39:45;;;;;;;5.60;5.00;;;;;;;;;;5061281;28;20189;-71
2021/05/29 05:42:10;;;;;;;5.23;4.73;;;;;;;;;;5060122;28;20176;-71
2021/05/29 05:44:35;;;;;;;7.43;5.93;;;;;;;;;;5067954;28;20264;-72
2021/05/29 05:47:00;;;;;;;6.60;5.10;;;;;;;;;;5067064;28;20718;-71
2021/05/29 05:49:26;;;;;;;8.00;5.03;;;;;;;;;;5064604;28;20705;-71
2021/05/29 05:51:51;;;;;;;7.20;5.25;;;;;;;;;;5067616;28;20177;-71
2021/05/29 05:54:17;;;;;;;7.28;5.95;;;;;;;;;;5067127;28;20697;-71
2021/05/29 05:56:42;;;;;;;5.53;5.03;;;;;;;;;;5057872;28;20227;-70
2021/05/29 05:59:07;;;;;;;7.22;5.43;;;;;;;;;;5064483;28;20180;-70
2021/05/29 06:01:32;;;;;;;8.02;5.13;;;;;;;;;;5066769;28;20212;-70
2021/05/29 06:03:57;;;;;;;5.95;4.57;;;;;;;;;;5058879;28;20190;-71
2021/05/29 06:06:23;;;;;;;8.25;5.38;;;;;;;;;;5066534;28;20252;-70
2021/05/29 06:08:48;;;;;;;5.38;4.55;;;;;;;;;;5064914;28;20643;-71
2021/05/29 06:11:14;;;;;;;7.85;5.00;;;;;;;;;;5058734;28;20192;-70
2021/05/29 06:21:35;;;;;;;6.65;5.30;;;;;;;;;;5063308;28;20202;-70
2021/05/29 06:24:00;;;;;;;8.82;6.43;;;;;;;;;;5062585;28;20193;-70
2021/05/29 06:26:26;;;;;;;8.32;5.60;;;;;;;;;;5066317;28;20177;-70
2021/05/29 06:28:51;;;;;;;9.02;5.90;;;;;;;;;;5062159;28;20717;-70
2021/05/29 06:31:16;;;;;;;7.28;6.07;;;;;;;;;;5056775;28;20196;-71
2021/05/29 06:33:41;;;;;;;7.95;6.18;;;;;;;;;;5057362;28;20247;-71
2021/05/29 06:36:06;;;;;;;6.82;6.13;;;;;;;;;;5062861;28;20212;-71
2021/05/29 06:38:32;;;;;;;8.73;7.65;;;;;;;;;;5066476;28;20192;-72
2021/05/29 06:40:57;;;;;;;7.43;6.20;;;;;;;;;;5061257;28;20702;-69
2021/05/29 06:43:22;;;;;;;8.00;7.13;;;;;;;;;;5059484;28;20256;-69
2021/05/29 06:45:47;;;;;;;7.25;6.28;;;;;;;;;;5059939;28;20199;-69
2021/05/29 06:48:14;;;;;;;8.27;6.47;;;;;;;;;;5066436;28;20180;-70
2021/05/29 06:50:46;;;;;;;8.48;6.35;;;;;;;;;;5063251;28;20632;-70
2021/05/29 06:53:14;;;;;;;8.88;6.68;;;;;;;;;;5057332;28;20208;-71
2021/05/29 06:58:41;;;;;;;11.35;6.72;;;;;;;;;;5061637;28;20219;-70
2021/05/29 07:01:06;;;;;;;8.98;6.63;;;;;;;;;;5061964;28;20630;-71
2021/05/29 07:03:31;;;;;;;7.40;6.28;;;;;;;;;;5062211;28;20201;-70
2021/05/29 07:05:56;;;;;;;7.72;5.95;;;;;;;;;;5063382;28;20556;-70
2021/05/29 07:08:22;;;;;;;7.22;6.05;;;;;;;;;;5058703;28;20181;-70
2021/05/29 07:10:47;;;;;;;7.65;5.68;;;;;;;;;;5063363;28;20185;-70
2021/05/29 07:13:12;;;;;;;6.60;5.53;;;;;;;;;;5059657;28;20217;-70
2021/05/29 07:15:40;;;;;;;6.78;5.57;;;;;;;;;;5062690;28;20422;-70
2021/05/29 07:18:11;;;;;;;7.63;5.85;;;;;;;;;;5064567;28;20319;-70
2021/05/29 07:20:37;;;;;;;7.47;5.97;;;;;;;;;;5062152;28;20602;-71
2021/05/29 07:23:02;;;;;;;6.70;6.03;;;;;;;;;;5058814;28;20600;-70
2021/05/29 07:25:28;;;;;;;6.95;5.13;;;;;;;;;;5059092;28;20179;-70
2021/05/29 07:27:53;;;;;;;7.68;5.25;;;;;;;;;;5060470;28;20188;-70
2021/05/29 07:30:19;;;;;;;9.13;6.10;;;;;;;;;;5060363;28;20185;-70
2021/05/29 07:32:44;;;;;;;6.13;5.35;;;;;;;;;;5058004;28;20445;-70
2021/05/29 07:35:09;;;;;;;6.63;5.40;;;;;;;;;;5060363;28;20181;-70
2021/05/29 07:37:36;;;;;;;6.72;5.95;;;;;;;;;;5061732;28;20273;-70
2021/05/29 07:40:02;;;;;;;6.78;5.88;;;;;;;;;;5060800;28;20634;-70
2021/05/29 07:42:27;;;;;;;5.35;4.85;;;;;;;;;;5060829;28;20185;-71
2021/05/29 07:44:52;;;;;;;7.47;5.17;;;;;;;;;;5061643;28;20326;-71
2021/05/29 07:47:18;;;;;;;6.30;5.05;;;;;;;;;;5060738;28;20954;-72
2021/05/29 07:49:44;;;;;;;7.45;5.03;;;;;;;;;;5058983;28;20173;-71
2021/05/29 07:52:09;;;;;;;5.70;5.10;;;;;;;;;;5058766;28;20303;-71
2021/05/29 07:54:34;;;;;;;5.50;4.75;;;;;;;;;;5057111;28;20449;-71
2021/05/29 07:56:59;;;;;;;7.53;4.47;;;;;;;;;;5059387;28;20260;-70
2021/05/29 07:59:25;;;;;;;5.53;4.97;;;;;;;;;;5062635;28;20430;-71
2021/05/29 08:01:51;;;;;;;5.45;4.72;;;;;;;;;;5063338;28;20449;-70
2021/05/29 08:04:17;;;;;;;6.03;4.80;;;;;;;;;;5059980;28;20189;-69
2021/05/29 08:06:42;;;;;;;5.05;3.90;;;;;;;;;;5057523;28;20553;-69
2021/05/29 08:09:08;;;;;;;4.20;3.75;;;;;;;;;;5059798;28;20186;-70
2021/05/29 08:11:37;;;;;;;3.47;2.97;;;;;;;;;;5057190;28;22254;-70
2021/05/29 08:14:02;;;;;;;4.97;4.47;;;;;;;;;;5064661;28;20461;-70
2021/05/29 08:16:28;;;;;;;4.45;4.05;;;;;;;;;;5060746;28;20205;-70
2021/05/29 08:18:54;;;;;;;5.18;4.32;;;;;;;;;;5060281;28;20298;-70
2021/05/29 08:21:19;;;;;;;6.60;5.40;;;;;;;;;;5059800;28;20193;-70
2021/05/29 08:23:45;;;;;;;5.47;4.32;;;;;;;;;;5063733;28;20213;-70
2021/05/29 08:26:10;;;;;;;8.82;4.68;;;;;;;;;;5059471;28;20553;-71
2021/05/29 08:28:36;;;;;;;6.40;4.90;;;;;;;;;;5057273;28;20187;-70
2021/05/29 08:31:03;;;;;;;5.88;4.55;;;;;;;;;;5059316;28;20669;-70
2021/05/29 08:33:29;;;;;;;6.30;5.32;;;;;;;;;;5058778;28;20232;-70
2021/05/29 08:35:54;;;;;;;6.88;5.90;;;;;;;;;;5064073;28;20209;-70
2021/05/29 08:38:19;;;;;;;8.23;5.85;;;;;;;;;;5060034;28;20516;-70
2021/05/29 08:40:45;;;;;;;7.00;6.37;;;;;;;;;;5068154;28;20287;-70
2021/05/29 08:43:10;;;;;;;6.60;6.00;;;;;;;;;;5058837;28;20441;-70
2021/05/29 08:45:35;;;;;;;7.15;5.63;;;;;;;;;;5061790;28;20693;-70
2021/05/29 08:48:00;;;;;;;8.52;6.40;;;;;;;;;;5061171;28;20176;-70
2021/05/29 08:50:26;;;;;;;6.65;5.57;;;;;;;;;;5060871;28;20250;-70
2021/05/29 08:52:52;;;;;;;7.63;5.80;;;;;;;;;;5059339;28;20288;-69
2021/05/29 08:55:17;;;;;;;8.30;5.82;;;;;;;;;;5063437;28;20262;-70
2021/05/29 08:57:43;;;;;;;6.78;4.97;;;;;;;;;;5059959;28;20240;-70
2021/05/29 09:00:09;;;;;;;5.22;4.68;;;;;;;;;;5059001;28;20202;-70
2021/05/29 09:02:54;;;;;;;7.47;5.47;;;;;;;;;;5045921;28;20213;-70
2021/05/29 09:05:19;;;;;;;8.77;5.93;;;;;;;;;;5048365;28;20182;-69
2021/05/29 09:07:44;;;;;;;5.75;5.15;;;;;;;;;;5047607;28;20184;-70
2021/05/29 09:10:20;;;;;;;8.07;5.23;;;;;;;;;;5045902;28;20211;-70
2021/05/29 09:12:58;;;;;;;6.30;5.00;;;;;;;;;;5049957;28;20978;-70
2021/05/29 09:15:23;;;;;;;4.97;4.43;;;;;;;;;;5047479;28;20733;-70
2021/05/29 09:17:48;;;;;;;3.60;3.30;;;;;;;;;;5047037;28;20186;-70
2021/05/29 09:20:15;;;;;;;5.43;4.30;;;;;;;;;;5044842;28;20454;-70
2021/05/29 09:22:56;;;;;;;4.75;4.28;;;;;;;;;;5052716;28;20441;-71
2021/05/29 09:25:23;;;;;;;4.75;4.35;;;;;;;;;;5051629;28;20181;-70
2021/05/29 09:27:54;;;;;;;4.57;4.13;;;;;;;;;;5050282;28;20387;-70
2021/05/29 09:30:38;;;;;;;5.32;4.32;;;;;;;;;;5047109;28;20181;-69
2021/05/29 09:33:15;;;;;;;5.32;4.30;;;;;;;;;;5047272;28;20211;-70
2021/05/29 09:35:41;;;;;;;4.90;4.40;;;;;;;;;;5049753;28;20257;-71
2021/05/29 09:38:06;;;;;;;5.40;4.05;;;;;;;;;;5047190;28;20185;-71
2021/05/29 09:40:32;;;;;;;4.15;3.75;;;;;;;;;;5057417;28;20199;-71
2021/05/29 09:43:04;;;;;;;5.03;4.55;;;;;;;;;;5049224;28;20296;-72
2021/05/29 09:45:30;;;;;;;6.03;5.00;;;;;;;;;;5046096;28;20185;-71
2021/05/29 09:48:15;;;;;;;5.68;4.70;;;;;;;;;;5046841;28;20867;-72
2021/05/29 09:50:59;;;;;;;5.80;5.00;;;;;;;;;;5055943;28;20555;-72
2021/05/29 09:53:29;;;;;;;5.40;4.47;;;;;;;;;;5062524;28;20657;-71
2021/05/29 09:55:54;;;;;;;4.50;4.10;;;;;;;;;;5062055;28;20177;-71
2021/05/29 09:58:20;;;;;;;5.78;4.32;;;;;;;;;;5056950;28;20598;-71
2021/05/29 10:00:50;;;;;;;4.60;4.20;;;;;;;;;;5053541;28;20244;-71
2021/05/29 10:03:16;;;;;;;5.38;4.20;;;;;;;;;;5046115;28;20193;-71
2021/05/29 10:05:48;;;;;;;5.97;4.60;;;;;;;;;;5050520;28;20241;-70
2021/05/29 10:08:14;;;;;;;5.38;4.55;;;;;;;;;;5053742;28;20184;-70
2021/05/29 10:10:39;;;;;;;4.53;4.13;;;;;;;;;;5048803;28;20704;-70
2021/05/29 10:13:05;;;;;;;5.05;4.10;;;;;;;;;;5052156;28;20205;-70
2021/05/29 10:15:30;;;;;;;4.80;4.28;;;;;;;;;;5048306;28;20769;-71
2021/05/29 10:17:56;;;;;;;5.40;4.90;;;;;;;;;;5048184;28;20698;-71
2021/05/29 10:20:22;;;;;;;4.97;3.78;;;;;;;;;;5047948;28;20503;-70
2021/05/29 10:22:48;;;;;;;4.43;3.85;;;;;;;;;;5048676;28;20200;-70
2021/05/29 10:25:17;;;;;;;4.25;3.70;;;;;;;;;;5048214;28;20298;-70
2021/05/29 10:27:44;;;;;;;5.03;4.35;;;;;;;;;;5049051;28;20204;-69
2021/05/29 10:30:10;;;;;;;4.28;3.88;;;;;;;;;;5048124;28;20188;-70
2021/05/29 10:32:35;;;;;;;4.20;3.75;;;;;;;;;;5048574;28;20204;-70
2021/05/29 10:35:05;;;;;;;5.28;4.78;;;;;;;;;;5047541;28;20546;-69
2021/05/29 10:37:30;;;;;;;4.50;4.10;;;;;;;;;;5045837;28;20642;-70
2021/05/29 10:40:12;;;;;;;4.33;4.00;;;;;;;;;;5052916;28;20193;-69
2021/05/29 10:42:37;;;;;;;4.60;4.20;;;;;;;;;;5053282;28;20495;-69
2021/05/29 10:45:25;;;;;;;4.57;3.50;;;;;;;;;;5047175;28;20269;-70
2021/05/29 10:48:06;;;;;;;5.28;4.78;;;;;;;;;;5048490;28;20209;-69
2021/05/29 10:50:52;;;;;;;6.75;4.55;;;;;;;;;;5051699;28;20196;-70
2021/05/29 10:53:36;;;;;;;5.72;5.10;;;;;;;;;;5048245;28;20518;-70
2021/05/29 10:56:20;;;;;;;5.45;4.95;;;;;;;;;;5050693;28;20196;-69
2021/05/29 10:58:55;;;;;;;6.05;5.45;;;;;;;;;;5047538;28;20468;-71
2021/05/29 11:01:21;;;;;;;5.57;4.93;;;;;;;;;;5050679;28;20249;-71
2021/05/29 11:03:47;;;;;;;7.40;4.57;;;;;;;;;;5049542;28;20292;-70
2021/05/29 11:06:29;;;;;;;5.93;5.00;;;;;;;;;;5056625;28;20169;-71
2021/05/29 11:08:57;;;;;;;6.07;5.47;;;;;;;;;;5050888;28;20205;-69
2021/05/29 11:11:39;;;;;;;7.43;5.53;;;;;;;;;;5051471;28;20673;-70
2021/05/29 11:14:07;;;;;;;7.13;5.38;;;;;;;;;;5058260;28;20208;-69
2021/05/29 11:16:52;;;;;;;5.65;5.13;;;;;;;;;;5053491;28;20211;-71
2021/05/29 11:19:21;;;;;;;6.88;5.32;;;;;;;;;;5052075;28;20281;-69
2021/05/29 11:22:24;;;;;;;6.18;5.68;;;;;;;;;;5052930;28;20205;-70
2021/05/29 11:24:49;;;;;;;5.82;5.22;;;;;;;;;;5055573;28;20184;-70
2021/05/29 11:27:16;;;;;;;8.40;5.22;;;;;;;;;;5049688;28;20805;-71
2021/05/29 11:29:47;;;;;;;5.82;5.22;;;;;;;;;;5052329;28;20259;-70
2021/05/29 11:32:12;;;;;;;5.20;4.70;;;;;;;;;;5053994;28;20211;-70
2021/05/29 11:34:44;;;;;;;5.17;4.67;;;;;;;;;;5050517;28;20224;-70
2021/05/29 11:37:15;;;;;;;5.38;4.70;;;;;;;;;;5055168;28;20181;-71
2021/05/29 11:39:50;;;;;;;4.78;4.30;;;;;;;;;;5054458;28;20177;-70
2021/05/29 11:42:15;;;;;;;5.03;4.63;;;;;;;;;;5053430;28;20212;-70
2021/05/29 11:44:41;;;;;;;5.22;4.72;;;;;;;;;;5050418;28;20288;-71
2021/05/29 11:47:16;;;;;;;5.60;5.10;;;;;;;;;;5048541;28;20183;-70
2021/05/29 11:49:41;;;;;;;6.85;5.10;;;;;;;;;;5049981;28;20184;-71
2021/05/29 11:52:07;;;;;;;6.97;5.05;;;;;;;;;;5052966;28;20650;-69
2021/05/29 11:54:33;;;;;;;7.22;5.35;;;;;;;;;;5048567;28;20291;-69
2021/05/29 11:56:58;;;;;;;4.35;3.95;;;;;;;;;;5050125;28;20170;-72
2021/05/29 11:59:23;;;;;;;6.33;4.63;;;;;;;;;;5049654;28;20566;-70
2021/05/29 12:01:53;;;;;;;6.70;4.30;;;;;;;;;;5049105;28;20460;-69
2021/05/29 12:04:23;;;;;;;6.20;5.20;;;;;;;;;;5048381;28;20929;-69
2021/05/29 12:06:49;;;;;;;5.95;5.07;;;;;;;;;;5054686;28;20181;-69
2021/05/29 12:09:17;;;;;;;5.57;4.20;;;;;;;;;;5048632;28;20456;-70
2021/05/29 12:12:02;;;;;;;5.78;4.65;;;;;;;;;;5053850;28;20189;-69
2021/05/29 12:14:32;;;;;;;5.18;4.45;;;;;;;;;;5051630;28;20689;-69
2021/05/29 12:16:59;;;;;;;6.55;5.07;;;;;;;;;;5051792;28;20197;-70
2021/05/29 12:19:38;;;;;;;4.90;4.30;;;;;;;;;;5048937;28;20185;-71
2021/05/29 12:22:07;;;;;;;5.18;4.35;;;;;;;;;;5051928;28;20419;-70
2021/05/29 12:24:41;;;;;;;4.25;3.85;;;;;;;;;;5047883;28;20639;-70
2021/05/29 12:27:09;;;;;;;7.80;4.32;;;;;;;;;;5050417;28;20639;-71
2021/05/29 12:29:35;;;;;;;5.60;4.53;;;;;;;;;;5049070;28;20202;-70
2021/05/29 12:32:00;;;;;;;4.93;3.92;;;;;;;;;;5052946;28;21703;-70
2021/05/29 12:34:28;;;;;;;3.90;3.60;;;;;;;;;;5051042;28;20240;-70
2021/05/29 12:36:59;;;;;;;5.60;4.38;;;;;;;;;;5054825;28;20219;-70
2021/05/29 12:39:41;;;;;;;4.95;4.20;;;;;;;;;;5053827;28;20196;-71
2021/05/29 12:42:16;;;;;;;4.82;3.78;;;;;;;;;;5047854;28;20205;-70
2021/05/29 12:44:48;;;;;;;4.75;3.35;;;;;;;;;;5048441;28;20611;-70
2021/05/29 12:47:23;;;;;;;7.65;4.28;;;;;;;;;;5047574;28;20195;-70
2021/05/29 12:49:49;;;;;;;5.63;4.20;;;;;;;;;;5058412;28;20252;-70
2021/05/29 12:52:22;;;;;;;4.90;4.40;;;;;;;;;;5064835;28;20208;-70
2021/05/29 12:54:47;;;;;;;6.18;4.50;;;;;;;;;;5050492;28;20178;-70
2021/05/29 12:57:12;;;;;;;5.28;3.80;;;;;;;;;;5051061;28;20537;-70
2021/05/29 12:59:37;;;;;;;4.83;4.00;;;;;;;;;;5049253;28;20809;-70
2021/05/29 13:07:38;;;;;;;4.15;3.72;;;;;;;;;;5052476;28;20200;-70
2021/05/29 13:12:30;;;;;;;6.00;3.97;;;;;;;;;;5053796;28;20197;-69
2021/05/29 13:14:56;;;;;;;4.43;3.42;;;;;;;;;;5051708;28;20263;-69
2021/05/29 13:17:24;;;;;;;4.63;3.83;;;;;;;;;;5047472;28;20172;-69
2021/05/29 13:19:52;;;;;;;4.65;4.25;;;;;;;;;;5049659;28;20173;-69
2021/05/29 13:22:23;;;;;;;5.00;4.50;;;;;;;;;;5048110;28;20207;-69
2021/05/29 13:24:53;;;;;;;4.80;4.07;;;;;;;;;;5050889;28;20530;-69
2021/05/29 13:27:32;;;;;;;5.22;4.25;;;;;;;;;;5050277;28;20896;-69
2021/05/29 13:30:04;;;;;;;5.90;4.68;;;;;;;;;;5048554;28;20634;-70
2021/05/29 13:32:30;;;;;;;4.50;4.07;;;;;;;;;;5048126;28;20640;-70
2021/05/29 13:34:56;;;;;;;3.95;3.55;;;;;;;;;;5046505;28;20181;-70
2021/05/29 13:37:22;;;;;;;6.57;3.95;;;;;;;;;;5052625;28;20188;-70
2021/05/29 13:39:48;;;;;;;5.35;4.25;;;;;;;;;;5050776;28;20200;-70
2021/05/29 13:42:14;;;;;;;4.60;3.88;;;;;;;;;;5051113;28;20721;-70
2021/05/29 13:44:40;;;;;;;6.28;3.72;;;;;;;;;;5048706;28;20183;-70
2021/05/29 13:47:05;;;;;;;5.57;4.60;;;;;;;;;;5049635;28;20170;-71
2021/05/29 13:49:31;;;;;;;5.63;4.05;;;;;;;;;;5048170;28;20823;-71
2021/05/29 13:51:57;;;;;;;4.95;3.85;;;;;;;;;;5049799;28;20196;-70
2021/05/29 13:54:22;;;;;;;3.97;3.58;;;;;;;;;;5046543;28;20262;-70
2021/05/29 13:56:48;;;;;;;4.75;3.83;;;;;;;;;;5055557;28;20178;-70
2021/05/29 13:59:14;;;;;;;3.88;3.50;;;;;;;;;;5046469;28;21361;-69
2021/05/29 14:01:39;;;;;;;5.32;3.80;;;;;;;;;;5053029;28;20228;-70
2021/05/29 14:04:05;;;;;;;4.47;4.07;;;;;;;;;;5048770;28;20287;-70
2021/05/29 14:06:34;;;;;;;8.25;4.30;;;;;;;;;;5047046;28;20184;-71
2021/05/29 14:08:59;;;;;;;5.03;3.90;;;;;;;;;;5047165;28;20674;-71
2021/05/29 14:11:26;;;;;;;4.72;4.25;;;;;;;;;;5046618;28;20189;-71
2021/05/29 14:13:52;;;;;;;5.32;4.60;;;;;;;;;;5052465;28;20197;-70
2021/05/29 14:16:18;;;;;;;5.50;4.35;;;;;;;;;;5051345;28;20294;-71
2021/05/29 14:18:44;;;;;;;4.10;3.58;;;;;;;;;;5046526;28;20197;-71
2021/05/29 14:21:09;;;;;;;6.07;3.92;;;;;;;;;;5046060;28;20296;-71
2021/05/29 14:23:34;;;;;;;4.63;4.20;;;;;;;;;;5048015;28;20211;-70
2021/05/29 14:26:00;;;;;;;4.33;3.93;;;;;;;;;;5050885;28;20228;-70
2021/05/29 14:28:25;;;;;;;5.20;4.13;;;;;;;;;;5048068;28;20432;-70
2021/05/29 14:30:50;;;;;;;4.43;4.03;;;;;;;;;;5049656;28;20674;-70
2021/05/29 14:33:15;;;;;;;5.13;4.00;;;;;;;;;;5047029;28;20452;-72
2021/05/29 14:35:40;;;;;;;5.10;3.40;;;;;;;;;;5052509;28;21038;-70
2021/05/29 14:38:06;;;;;;;4.90;3.47;;;;;;;;;;5050374;28;20188;-71
2021/05/29 14:40:31;;;;;;;4.97;3.60;;;;;;;;;;5060928;28;20970;-70
2021/05/29 14:42:56;;;;;;;3.83;3.53;;;;;;;;;;5049092;28;20201;-68
2021/05/29 14:45:22;;;;;;;4.07;3.50;;;;;;;;;;5050993;28;20948;-70
2021/05/29 14:47:49;;;;;;;4.85;3.22;;;;;;;;;;5050809;28;20178;-70
2021/05/29 14:50:14;;;;;;;3.80;3.40;;;;;;;;;;5052734;28;20182;-70
2021/05/29 14:52:40;;;;;;;3.72;2.83;;;;;;;;;;5050385;28;20193;-69
2021/05/29 14:55:06;;;;;;;4.35;3.35;;;;;;;;;;5051783;28;20177;-69
2021/05/29 14:57:31;;;;;;;3.08;2.70;;;;;;;;;;5056108;28;20177;-69
2021/05/29 14:59:56;;;;;;;4.75;2.45;;;;;;;;;;5050135;28;20193;-69
2021/05/29 15:02:21;;;;;;;3.20;2.83;;;;;;;;;;5051739;28;20789;-69
2021/05/29 15:04:57;;;;;;;3.65;2.83;;;;;;;;;;5050532;28;20182;-70